createdAt,value
2023-05-14T00:00:26.966Z,10.46
2023-05-14T00:01:26.946Z,10.51
2023-05-14T00:02:27.036Z,10.52
2023-05-14T00:03:27.074Z,10.55
2023-05-14T00:04:26.931Z,10.54
2023-05-14T00:05:26.943Z,10.54
2023-05-14T00:06:26.890Z,10.54
2023-05-14T00:07:26.897Z,10.51
2023-05-14T00:08:26.867Z,10.44
2023-05-14T00:09:26.870Z,10.39
2023-05-14T00:10:26.878Z,10.38
2023-05-14T00:11:26.866Z,10.32
2023-05-14T00:12:26.828Z,10.29
2023-05-14T00:13:26.820Z,10.32
2023-05-14T00:14:26.809Z,10.34
2023-05-14T00:15:29.216Z,10.34
2023-05-14T00:16:26.877Z,10.35
2023-05-14T00:17:27.051Z,10.36
2023-05-14T00:18:27.296Z,10.31
2023-05-14T00:19:26.759Z,10.28
2023-05-14T00:20:26.770Z,10.25
2023-05-14T00:21:26.750Z,10.17
2023-05-14T00:22:26.726Z,10.17
2023-05-14T00:23:26.747Z,10.14
2023-05-14T00:24:26.703Z,10.17
2023-05-14T00:25:26.690Z,10.20
2023-05-14T00:26:26.709Z,10.25
2023-05-14T00:27:26.691Z,10.22
2023-05-14T00:28:26.660Z,10.22
2023-05-14T00:29:26.660Z,10.22
2023-05-14T00:30:26.637Z,10.17
2023-05-14T00:31:27.178Z,10.20
2023-05-14T00:32:26.662Z,10.13
2023-05-14T00:33:26.791Z,10.11
2023-05-14T00:34:26.596Z,10.10
2023-05-14T00:35:26.607Z,10.07
2023-05-14T00:36:26.568Z,10.09
2023-05-14T00:37:26.577Z,10.09
2023-05-14T00:38:26.579Z,10.04
2023-05-14T00:39:26.661Z,9.99
2023-05-14T00:40:26.587Z,9.96
2023-05-14T00:41:26.536Z,9.92
2023-05-14T00:42:26.505Z,9.92
2023-05-14T00:43:26.535Z,9.95
2023-05-14T00:44:26.497Z,9.92
2023-05-14T00:45:26.481Z,9.91
2023-05-14T00:46:26.540Z,9.86
2023-05-14T00:47:26.472Z,9.85
2023-05-14T00:48:26.447Z,9.81
2023-05-14T00:49:26.453Z,9.81
2023-05-14T00:50:26.690Z,9.80
2023-05-14T00:51:26.445Z,9.83
2023-05-14T00:52:27.269Z,9.83
2023-05-14T00:53:26.407Z,9.86
2023-05-14T00:54:26.382Z,9.91
2023-05-14T00:55:26.382Z,9.89
2023-05-14T00:56:26.380Z,9.92
2023-05-14T00:57:26.362Z,9.92
2023-05-14T00:58:26.337Z,9.92
2023-05-14T00:59:26.334Z,9.96
2023-05-14T01:00:26.363Z,9.96
2023-05-14T01:01:26.452Z,9.99
2023-05-14T01:02:26.427Z,10.01
2023-05-14T01:03:27.444Z,10.09
2023-05-14T01:04:26.274Z,10.11
2023-05-14T01:05:26.272Z,10.13
2023-05-14T01:06:26.278Z,10.13
2023-05-14T01:07:26.258Z,10.14
2023-05-14T01:08:26.257Z,10.16
2023-05-14T01:09:26.233Z,10.16
2023-05-14T01:10:26.882Z,10.13
2023-05-14T01:11:26.343Z,10.10
2023-05-14T01:12:26.205Z,10.09
2023-05-14T01:13:26.185Z,10.07
2023-05-14T01:14:26.173Z,10.06
2023-05-14T01:15:26.168Z,10.02
2023-05-14T01:16:26.205Z,9.96
2023-05-14T01:17:26.180Z,9.92
2023-05-14T01:18:26.259Z,9.92
2023-05-14T01:19:26.121Z,9.89
2023-05-14T01:20:26.277Z,9.88
2023-05-14T01:21:26.287Z,9.91
2023-05-14T01:22:26.654Z,9.85
2023-05-14T01:23:27.719Z,9.80
2023-05-14T01:24:26.063Z,9.77
2023-05-14T01:25:26.047Z,9.78
2023-05-14T01:26:26.055Z,9.80
2023-05-14T01:27:26.056Z,9.77
2023-05-14T01:28:26.018Z,9.78
2023-05-14T01:29:26.021Z,9.73
2023-05-14T01:30:26.308Z,9.70
2023-05-14T01:31:26.038Z,9.63
2023-05-14T01:32:26.044Z,9.62
2023-05-14T01:33:25.976Z,9.58
2023-05-14T01:34:25.945Z,9.58
2023-05-14T01:35:25.957Z,9.58
2023-05-14T01:36:25.939Z,9.58
2023-05-14T01:37:26.168Z,9.60
2023-05-14T01:38:25.910Z,9.59
2023-05-14T01:39:25.936Z,9.58
2023-05-14T01:40:26.362Z,9.56
2023-05-14T01:41:25.901Z,9.55
2023-05-14T01:42:25.891Z,9.53
2023-05-14T01:43:25.949Z,9.53
2023-05-14T01:44:25.853Z,9.49
2023-05-14T01:45:25.855Z,9.49
2023-05-14T01:46:25.929Z,9.44
2023-05-14T01:47:25.862Z,9.40
2023-05-14T01:48:25.826Z,9.38
2023-05-14T01:49:25.808Z,9.38
2023-05-14T01:50:25.959Z,9.37
2023-05-14T01:51:25.825Z,9.32
2023-05-14T01:52:25.773Z,9.27
2023-05-14T01:53:25.788Z,9.26
2023-05-14T01:54:25.733Z,9.26
2023-05-14T01:55:25.755Z,9.31
2023-05-14T01:56:25.816Z,9.34
2023-05-14T01:57:25.726Z,9.35
2023-05-14T01:58:25.732Z,9.38
2023-05-14T01:59:25.713Z,9.38
2023-05-14T02:00:26.017Z,9.37
2023-05-14T02:01:25.756Z,9.37
2023-05-14T02:02:25.859Z,9.35
2023-05-14T02:03:25.685Z,9.31
2023-05-14T02:04:25.821Z,9.27
2023-05-14T02:05:25.642Z,9.26
2023-05-14T02:06:25.604Z,9.26
2023-05-14T02:07:25.637Z,9.23
2023-05-14T02:08:25.622Z,9.26
2023-05-14T02:09:25.594Z,9.26
2023-05-14T02:10:25.756Z,9.27
2023-05-14T02:11:25.573Z,9.30
2023-05-14T02:12:25.552Z,9.26
2023-05-14T02:13:25.578Z,9.27
2023-05-14T02:14:25.539Z,9.27
2023-05-14T02:15:25.542Z,9.32
2023-05-14T02:16:25.605Z,9.31
2023-05-14T02:17:25.516Z,9.35
2023-05-14T02:18:25.580Z,9.38
2023-05-14T02:19:25.474Z,9.41
2023-05-14T02:20:25.727Z,9.42
2023-05-14T02:21:25.471Z,9.44
2023-05-14T02:22:25.469Z,9.48
2023-05-14T02:23:34.058Z,9.48
2023-05-14T02:24:25.454Z,9.45
2023-05-14T02:25:25.458Z,9.49
2023-05-14T02:26:25.403Z,9.53
2023-05-14T02:27:25.402Z,9.58
2023-05-14T02:28:25.390Z,9.63
2023-05-14T02:29:25.400Z,9.67
2023-05-14T02:30:25.607Z,9.71
2023-05-14T02:31:25.372Z,9.80
2023-05-14T02:32:25.420Z,9.80
2023-05-14T02:33:25.314Z,9.80
2023-05-14T02:34:25.341Z,9.78
2023-05-14T02:35:25.317Z,9.83
2023-05-14T02:36:25.301Z,9.83
2023-05-14T02:37:25.261Z,9.85
2023-05-14T02:38:25.225Z,9.85
2023-05-14T02:39:25.242Z,9.89
2023-05-14T02:40:25.510Z,9.95
2023-05-14T02:41:25.258Z,9.92
2023-05-14T02:42:25.225Z,9.95
2023-05-14T02:43:25.176Z,9.98
2023-05-14T02:44:25.165Z,9.98
2023-05-14T02:45:25.200Z,10.02
2023-05-14T02:46:26.262Z,10.06
2023-05-14T02:47:25.150Z,10.06
2023-05-14T02:48:25.130Z,10.09
2023-05-14T02:49:25.111Z,10.13
2023-05-14T02:50:25.445Z,10.16
2023-05-14T02:51:25.090Z,10.18
2023-05-14T02:52:25.229Z,10.18
2023-05-14T02:53:25.101Z,10.20
2023-05-14T02:54:25.051Z,10.20
2023-05-14T02:55:25.061Z,10.25
2023-05-14T02:56:25.035Z,10.25
2023-05-14T02:57:25.023Z,10.26
2023-05-14T02:58:26.175Z,10.26
2023-05-14T02:59:25.002Z,10.28
2023-05-14T03:00:25.252Z,10.26
2023-05-14T03:01:25.044Z,10.26
2023-05-14T03:02:25.039Z,10.26
2023-05-14T03:03:25.016Z,10.28
2023-05-14T03:04:24.948Z,10.28
2023-05-14T03:05:25.154Z,10.34
2023-05-14T03:06:24.922Z,10.36
2023-05-14T03:07:24.925Z,10.36
2023-05-14T03:08:24.925Z,10.39
2023-05-14T03:09:24.919Z,10.38
2023-05-14T03:10:25.232Z,10.42
2023-05-14T03:11:24.917Z,10.38
2023-05-14T03:12:24.869Z,10.42
2023-05-14T03:13:24.865Z,10.42
2023-05-14T03:14:24.841Z,10.39
2023-05-14T03:15:24.882Z,10.39
2023-05-14T03:16:24.846Z,10.39
2023-05-14T03:17:24.837Z,10.42
2023-05-14T03:18:24.877Z,10.43
2023-05-14T03:19:24.792Z,10.43
2023-05-14T03:20:25.059Z,10.46
2023-05-14T03:21:24.798Z,10.49
2023-05-14T03:22:24.762Z,10.51
2023-05-14T03:23:24.752Z,10.58
2023-05-14T03:24:24.762Z,10.58
2023-05-14T03:25:24.739Z,10.62
2023-05-14T03:26:24.731Z,10.62
2023-05-14T03:27:24.721Z,10.62
2023-05-14T03:28:24.691Z,10.63
2023-05-14T03:29:24.694Z,10.63
2023-05-14T03:30:24.902Z,10.66
2023-05-14T03:31:24.767Z,10.66
2023-05-14T03:32:24.682Z,10.69
2023-05-14T03:33:24.652Z,10.68
2023-05-14T03:34:24.661Z,10.69
2023-05-14T03:35:24.635Z,10.72
2023-05-14T03:36:24.608Z,10.80
2023-05-14T03:37:24.608Z,10.86
2023-05-14T03:38:24.589Z,10.88
2023-05-14T03:39:24.618Z,10.84
2023-05-14T03:40:24.773Z,10.88
2023-05-14T03:41:24.581Z,10.84
2023-05-14T03:42:24.550Z,10.87
2023-05-14T03:43:24.541Z,10.86
2023-05-14T03:44:24.523Z,10.87
2023-05-14T03:45:24.534Z,10.88
2023-05-14T03:46:24.532Z,10.90
2023-05-14T03:47:24.554Z,10.91
2023-05-14T03:48:24.553Z,10.90
2023-05-14T03:49:24.490Z,10.91
2023-05-14T03:50:24.670Z,10.93
2023-05-14T03:51:24.460Z,10.98
2023-05-14T03:52:24.457Z,10.98
2023-05-14T03:53:24.444Z,11.01
2023-05-14T03:54:24.432Z,11.02
2023-05-14T03:55:24.743Z,11.05
2023-05-14T03:56:24.402Z,11.06
2023-05-14T03:57:24.415Z,11.06
2023-05-14T03:58:24.419Z,11.06
2023-05-14T03:59:24.371Z,11.05
2023-05-14T04:00:24.771Z,11.06
2023-05-14T04:01:24.597Z,11.08
2023-05-14T04:02:24.421Z,11.09
2023-05-14T04:03:24.570Z,11.06
2023-05-14T04:04:24.401Z,11.05
2023-05-14T04:05:24.310Z,11.03
2023-05-14T04:06:24.301Z,11.05
2023-05-14T04:07:24.280Z,11.05
2023-05-14T04:08:24.322Z,11.05
2023-05-14T04:09:24.273Z,11.06
2023-05-14T04:10:24.517Z,11.08
2023-05-14T04:11:24.242Z,11.03
2023-05-14T04:12:24.236Z,11.05
2023-05-14T04:13:24.270Z,11.03
2023-05-14T04:14:24.229Z,11.02
2023-05-14T04:15:24.218Z,11.01
2023-05-14T04:16:24.281Z,11.01
2023-05-14T04:17:24.210Z,10.98
2023-05-14T04:18:24.207Z,10.93
2023-05-14T04:19:24.278Z,10.91
2023-05-14T04:20:24.360Z,10.87
2023-05-14T04:21:24.171Z,10.84
2023-05-14T04:22:24.155Z,10.80
2023-05-14T04:23:24.120Z,10.76
2023-05-14T04:24:24.117Z,10.78
2023-05-14T04:25:24.094Z,10.78
2023-05-14T04:26:24.107Z,10.73
2023-05-14T04:27:24.100Z,10.75
2023-05-14T04:28:24.072Z,10.75
2023-05-14T04:29:24.060Z,10.73
2023-05-14T04:30:24.308Z,10.72
2023-05-14T04:31:24.599Z,10.72
2023-05-14T04:32:24.057Z,10.72
2023-05-14T04:33:24.009Z,10.72
2023-05-14T04:34:24.009Z,10.75
2023-05-14T04:35:24.983Z,10.75
2023-05-14T04:36:24.004Z,10.78
2023-05-14T04:37:23.990Z,10.83
2023-05-14T04:38:23.958Z,10.83
2023-05-14T04:39:23.947Z,10.84
2023-05-14T04:40:24.258Z,10.84
2023-05-14T04:41:23.932Z,10.84
2023-05-14T04:42:23.945Z,10.88
2023-05-14T04:43:23.903Z,10.91
2023-05-14T04:44:23.915Z,10.91
2023-05-14T04:45:23.880Z,10.95
2023-05-14T04:46:23.927Z,10.99
2023-05-14T04:47:23.906Z,11.02
2023-05-14T04:48:23.862Z,11.03
2023-05-14T04:49:23.844Z,11.06
2023-05-14T04:50:24.062Z,11.09
2023-05-14T04:51:23.810Z,11.12
2023-05-14T04:52:23.844Z,11.13
2023-05-14T04:53:23.820Z,11.19
2023-05-14T04:54:23.811Z,11.19
2023-05-14T04:55:23.775Z,11.24
2023-05-14T04:56:23.767Z,11.30
2023-05-14T04:57:23.757Z,11.33
2023-05-14T04:58:23.773Z,11.38
2023-05-14T04:59:23.735Z,11.42
2023-05-14T05:00:23.838Z,11.48
2023-05-14T05:01:23.805Z,11.53
2023-05-14T05:02:23.750Z,11.56
2023-05-14T05:03:23.740Z,11.60
2023-05-14T05:04:23.689Z,11.63
2023-05-14T05:05:23.676Z,11.67
2023-05-14T05:06:23.673Z,11.72
2023-05-14T05:07:23.653Z,11.78
2023-05-14T05:08:23.672Z,11.87
2023-05-14T05:09:23.629Z,11.93
2023-05-14T05:10:23.832Z,12.03
2023-05-14T05:11:25.319Z,12.13
2023-05-14T05:12:23.609Z,12.22
2023-05-14T05:13:23.611Z,12.31
2023-05-14T05:14:23.598Z,12.38
2023-05-14T05:15:25.889Z,12.49
2023-05-14T05:16:25.143Z,12.59
2023-05-14T05:17:42.455Z,12.67
2023-05-14T05:18:26.574Z,12.77
2023-05-14T05:19:35.910Z,12.88
2023-05-14T05:20:24.389Z,12.95
2023-05-14T05:21:23.512Z,13.01
2023-05-14T05:22:24.220Z,13.09
2023-05-14T05:23:24.826Z,13.16
2023-05-14T05:24:24.847Z,13.24
2023-05-14T05:25:24.143Z,13.32
2023-05-14T05:26:25.127Z,13.39
2023-05-14T05:27:26.497Z,13.50
2023-05-14T05:28:23.434Z,13.59
2023-05-14T05:29:25.762Z,13.53
2023-05-14T05:30:23.626Z,13.46
2023-05-14T05:31:23.443Z,13.38
2023-05-14T05:32:23.455Z,13.36
2023-05-14T05:33:23.739Z,13.43
2023-05-14T05:34:23.408Z,13.41
2023-05-14T05:35:23.364Z,13.44
2023-05-14T05:36:23.384Z,13.53
2023-05-14T05:37:23.337Z,13.75
2023-05-14T05:38:23.350Z,13.93
2023-05-14T05:39:23.336Z,14.05
2023-05-14T05:40:23.529Z,14.21
2023-05-14T05:41:23.311Z,14.34
2023-05-14T05:42:23.318Z,14.48
2023-05-14T05:43:23.304Z,14.57
2023-05-14T05:44:23.278Z,14.71
2023-05-14T05:45:23.460Z,14.82
2023-05-14T05:46:23.292Z,14.95
2023-05-14T05:47:23.256Z,15.12
2023-05-14T05:48:23.236Z,15.33
2023-05-14T05:49:23.224Z,15.51
2023-05-14T05:50:24.768Z,15.76
2023-05-14T05:51:23.198Z,16.06
2023-05-14T05:52:23.211Z,16.41
2023-05-14T05:53:23.221Z,16.52
2023-05-14T05:54:24.752Z,16.81
2023-05-14T05:55:24.727Z,16.75
2023-05-14T05:56:23.142Z,17.07
2023-05-14T05:57:25.691Z,17.49
2023-05-14T05:58:23.144Z,17.86
2023-05-14T05:59:23.109Z,18.04
2023-05-14T06:00:23.330Z,17.83
2023-05-14T06:01:23.092Z,18.21
2023-05-14T06:02:23.146Z,18.20
2023-05-14T06:03:23.080Z,18.13
2023-05-14T06:04:23.054Z,18.26
2023-05-14T06:05:23.100Z,17.86
2023-05-14T06:06:23.036Z,18.35
2023-05-14T06:07:23.021Z,18.51
2023-05-14T06:08:23.027Z,18.84
2023-05-14T06:09:23.006Z,19.65
2023-05-14T06:10:23.158Z,19.45
2023-05-14T06:11:23.004Z,19.01
2023-05-14T06:12:22.983Z,19.24
2023-05-14T06:13:22.988Z,19.86
2023-05-14T06:14:22.951Z,20.04
2023-05-14T06:15:22.957Z,19.98
2023-05-14T06:16:22.989Z,19.95
2023-05-14T06:17:22.944Z,20.44
2023-05-14T06:18:23.811Z,20.91
2023-05-14T06:19:22.992Z,21.19
2023-05-14T06:20:23.106Z,21.26
2023-05-14T06:21:22.872Z,20.27
2023-05-14T06:22:22.870Z,20.35
2023-05-14T06:23:22.861Z,20.26
2023-05-14T06:24:22.887Z,20.13
2023-05-14T06:25:22.843Z,19.47
2023-05-14T06:26:22.831Z,19.92
2023-05-14T06:27:22.806Z,20.30
2023-05-14T06:28:22.811Z,20.35
2023-05-14T06:29:23.885Z,20.46
2023-05-14T06:30:23.177Z,19.68
2023-05-14T06:31:22.793Z,19.39
2023-05-14T06:32:22.878Z,19.20
2023-05-14T06:33:22.765Z,18.68
2023-05-14T06:34:22.746Z,18.41
2023-05-14T06:35:22.717Z,18.16
2023-05-14T06:36:22.721Z,17.92
2023-05-14T06:37:22.706Z,17.74
2023-05-14T06:38:22.726Z,17.62
2023-05-14T06:39:22.671Z,17.51
2023-05-14T06:40:23.215Z,17.53
2023-05-14T06:41:22.683Z,17.55
2023-05-14T06:42:22.688Z,17.49
2023-05-14T06:43:22.658Z,17.39
2023-05-14T06:44:22.641Z,17.39
2023-05-14T06:45:24.782Z,17.39
2023-05-14T06:46:22.612Z,17.49
2023-05-14T06:47:22.641Z,17.63
2023-05-14T06:48:22.716Z,17.73
2023-05-14T06:49:22.566Z,17.79
2023-05-14T06:50:22.786Z,17.80
2023-05-14T06:51:22.575Z,17.86
2023-05-14T06:52:22.552Z,17.86
2023-05-14T06:53:22.535Z,17.91
2023-05-14T06:54:22.543Z,18.02
2023-05-14T06:55:22.532Z,18.07
2023-05-14T06:56:22.507Z,17.99
2023-05-14T06:57:22.486Z,17.83
2023-05-14T06:58:22.484Z,17.81
2023-05-14T06:59:22.466Z,17.92
2023-05-14T07:00:22.749Z,17.99
2023-05-14T07:01:22.469Z,17.94
2023-05-14T07:02:22.483Z,17.96
2023-05-14T07:03:23.346Z,18.09
2023-05-14T07:04:22.462Z,17.92
2023-05-14T07:05:22.508Z,17.91
2023-05-14T07:06:22.396Z,17.98
2023-05-14T07:07:22.612Z,18.04
2023-05-14T07:08:22.366Z,18.01
2023-05-14T07:09:22.354Z,18.09
2023-05-14T07:10:22.792Z,18.17
2023-05-14T07:11:22.433Z,18.19
2023-05-14T07:12:23.787Z,18.25
2023-05-14T07:13:22.315Z,18.25
2023-05-14T07:14:22.323Z,18.23
2023-05-14T07:15:22.304Z,18.31
2023-05-14T07:16:22.339Z,18.28
2023-05-14T07:17:22.410Z,18.31
2023-05-14T07:18:22.297Z,18.29
2023-05-14T07:19:22.258Z,18.36
2023-05-14T07:20:22.578Z,18.42
2023-05-14T07:21:22.274Z,18.39
2023-05-14T07:22:22.272Z,18.44
2023-05-14T07:23:22.289Z,18.51
2023-05-14T07:24:22.248Z,18.51
2023-05-14T07:25:22.199Z,18.60
2023-05-14T07:26:22.254Z,18.69
2023-05-14T07:27:22.165Z,18.76
2023-05-14T07:28:22.209Z,18.91
2023-05-14T07:29:22.147Z,18.93
2023-05-14T07:30:22.249Z,18.96
2023-05-14T07:31:22.210Z,19.09
2023-05-14T07:32:22.116Z,19.10
2023-05-14T07:33:22.116Z,19.21
2023-05-14T07:34:22.109Z,19.20
2023-05-14T07:35:22.111Z,19.17
2023-05-14T07:36:22.111Z,19.25
2023-05-14T07:37:23.726Z,19.21
2023-05-14T07:38:22.063Z,19.17
2023-05-14T07:39:23.026Z,19.21
2023-05-14T07:40:22.958Z,19.23
2023-05-14T07:41:23.887Z,19.16
2023-05-14T07:42:35.377Z,19.21
2023-05-14T07:43:23.542Z,19.39
2023-05-14T07:44:22.031Z,19.50
2023-05-14T07:45:21.982Z,19.64
2023-05-14T07:46:21.978Z,19.79
2023-05-14T07:47:21.970Z,19.94
2023-05-14T07:48:23.558Z,20.01
2023-05-14T07:49:21.957Z,20.20
2023-05-14T07:50:23.732Z,20.17
2023-05-14T07:51:23.000Z,20.41
2023-05-14T07:52:23.452Z,20.79
2023-05-14T07:53:23.444Z,21.12
2023-05-14T07:54:21.928Z,21.24
2023-05-14T07:55:21.878Z,21.45
2023-05-14T07:56:22.725Z,21.51
2023-05-14T07:57:21.843Z,21.71
2023-05-14T07:58:21.847Z,21.51
2023-05-14T07:59:21.853Z,21.40
2023-05-14T08:00:22.011Z,21.67
2023-05-14T08:01:21.798Z,21.59
2023-05-14T08:02:21.932Z,21.59
2023-05-14T08:03:21.853Z,21.52
2023-05-14T08:04:21.824Z,21.40
2023-05-14T08:05:21.756Z,21.40
2023-05-14T08:06:21.781Z,21.63
2023-05-14T08:07:21.769Z,21.33
2023-05-14T08:08:21.750Z,21.45
2023-05-14T08:09:21.848Z,21.68
2023-05-14T08:10:21.829Z,22.01
2023-05-14T08:11:22.518Z,22.41
2023-05-14T08:12:21.691Z,22.57
2023-05-14T08:13:21.690Z,22.54
2023-05-14T08:14:21.676Z,22.57
2023-05-14T08:15:21.701Z,22.64
2023-05-14T08:16:21.724Z,22.54
2023-05-14T08:17:21.689Z,22.64
2023-05-14T08:18:23.134Z,22.66
2023-05-14T08:19:21.705Z,22.61
2023-05-14T08:20:21.693Z,22.64
2023-05-14T08:21:21.626Z,22.78
2023-05-14T08:22:21.588Z,22.48
2023-05-14T08:23:21.620Z,22.38
2023-05-14T08:24:21.580Z,22.21
2023-05-14T08:25:21.574Z,22.09
2023-05-14T08:26:21.641Z,22.24
2023-05-14T08:27:21.565Z,22.41
2023-05-14T08:28:21.526Z,22.66
2023-05-14T08:29:21.515Z,23.00
2023-05-14T08:30:21.630Z,23.14
2023-05-14T08:31:21.528Z,23.09
2023-05-14T08:32:23.699Z,22.97
2023-05-14T08:33:21.485Z,23.04
2023-05-14T08:34:21.461Z,23.32
2023-05-14T08:35:21.488Z,23.32
2023-05-14T08:36:21.473Z,23.26
2023-05-14T08:37:21.712Z,23.38
2023-05-14T08:38:21.418Z,23.44
2023-05-14T08:39:23.803Z,23.82
2023-05-14T08:40:21.580Z,24.00
2023-05-14T08:41:21.406Z,23.63
2023-05-14T08:42:21.391Z,23.21
2023-05-14T08:43:21.395Z,23.25
2023-05-14T08:44:21.358Z,23.52
2023-05-14T08:45:21.397Z,23.47
2023-05-14T08:46:21.344Z,23.64
2023-05-14T08:47:21.353Z,23.23
2023-05-14T08:48:21.402Z,23.26
2023-05-14T08:49:21.314Z,23.49
2023-05-14T08:50:23.022Z,23.59
2023-05-14T08:51:21.298Z,23.53
2023-05-14T08:52:21.262Z,23.72
2023-05-14T08:53:21.291Z,24.24
2023-05-14T08:54:21.242Z,24.55
2023-05-14T08:55:21.297Z,25.53
2023-05-14T08:56:21.837Z,25.74
2023-05-14T08:57:21.223Z,25.42
2023-05-14T08:58:21.211Z,25.71
2023-05-14T08:59:21.232Z,25.94
2023-05-14T09:00:21.292Z,25.76
2023-05-14T09:01:21.221Z,25.34
2023-05-14T09:02:21.204Z,24.66
2023-05-14T09:03:21.713Z,24.59
2023-05-14T09:04:21.218Z,24.66
2023-05-14T09:05:21.952Z,24.67
2023-05-14T09:06:21.647Z,24.60
2023-05-14T09:07:24.381Z,24.19
2023-05-14T09:08:22.905Z,24.16
2023-05-14T09:09:21.118Z,24.49
2023-05-14T09:10:21.228Z,24.63
2023-05-14T09:11:21.073Z,24.84
2023-05-14T09:12:21.064Z,25.07
2023-05-14T09:13:21.083Z,25.20
2023-05-14T09:14:21.043Z,24.98
2023-05-14T09:15:21.196Z,24.79
2023-05-14T09:16:21.071Z,24.89
2023-05-14T09:17:21.106Z,24.83
